Time;durP1;ratioP1;P1;durP2;ratioP2;P2;SDS_P1;SDS_P2;PMS_P1;PMS_P2;Temp;Humidity;BMP_temperature;BMP_pressure;BME280_temperature;BME280_humidity;BME280_pressure;Samples;Min_cycle;Max_cycle;Signal;HPM_P1;HPM_P2
2022/01/02 00:01:00;;;;;;;7.57;4.45;;;;;;;8.37;100.00;100344.28;5045600;28;20117;-83
2022/01/02 00:03:36;;;;;;;7.22;4.20;;;;;;;8.33;100.00;100358.56;5041461;28;20029;-83
2022/01/02 00:06:02;;;;;;;8.13;4.53;;;;;;;8.28;100.00;100360.41;5044734;28;20093;-83
2022/01/02 00:08:44;;;;;;;7.65;4.35;;;;;;;8.29;100.00;100350.66;5044768;28;20363;-83
2022/01/02 00:11:14;;;;;;;8.27;4.28;;;;;;;8.22;100.00;100339.28;5043747;28;20085;-83
2022/01/02 00:13:55;;;;;;;8.55;4.70;;;;;;;8.22;100.00;100329.47;5044541;28;20025;-83
2022/01/02 00:16:21;;;;;;;9.32;4.50;;;;;;;8.22;100.00;100336.63;5045216;28;20033;-82
2022/01/02 00:19:08;;;;;;;6.68;4.32;;;;;;;8.21;100.00;100321.53;5042278;28;20021;-83
2022/01/02 00:21:46;;;;;;;7.40;4.80;;;;;;;8.21;100.00;100317.13;5045398;28;20037;-83
2022/01/02 00:24:20;;;;;;;8.40;4.72;;;;;;;8.24;100.00;100311.75;5044235;28;20049;-83
2022/01/02 00:26:54;;;;;;;9.80;4.50;;;;;;;8.29;100.00;100293.00;5044541;28;20103;-83
2022/01/02 00:29:29;;;;;;;8.77;4.22;;;;;;;8.31;100.00;100277.00;5042987;28;20030;-82
2022/01/02 00:31:55;;;;;;;7.25;4.43;;;;;;;8.31;100.00;100279.66;5036539;28;20021;-82
2022/01/02 00:34:21;;;;;;;7.30;4.47;;;;;;;8.31;100.00;100277.91;5039578;28;20017;-82
2022/01/02 00:37:03;;;;;;;9.15;4.88;;;;;;;8.30;100.00;100259.31;5039515;28;20390;-82
2022/01/02 00:39:31;;;;;;;8.18;4.40;;;;;;;8.26;100.00;100263.81;5040680;28;20033;-83
2022/01/02 00:42:07;;;;;;;10.27;4.57;;;;;;;8.25;100.00;100267.38;5044133;28;20091;-82
2022/01/02 00:45:01;;;;;;;10.77;5.30;;;;;;;8.22;100.00;100276.28;5044573;28;20022;-83
2022/01/02 00:48:12;;;;;;;8.18;4.90;;;;;;;8.24;100.00;100260.31;5043652;28;20045;-83
2022/01/02 00:50:59;;;;;;;9.65;5.00;;;;;;;8.27;100.00;100257.59;5044005;28;20040;-83
2022/01/02 00:53:41;;;;;;;7.80;4.57;;;;;;;8.30;100.00;100246.88;5043918;28;20045;-84
2022/01/02 00:56:12;;;;;;;6.28;3.00;;;;;;;8.46;100.00;100258.06;5044978;28;20344;-82
2022/01/02 00:59:30;;;;;;;4.90;3.00;;;;;;;8.66;100.00;100266.56;5045095;28;20026;-83
2022/01/02 01:05:03;;;;;;;5.63;2.90;;;;;;;9.16;100.00;100263.63;5032171;28;20053;-73
2022/01/02 01:07:31;;;;;;;6.72;2.60;;;;;;;9.23;100.00;100258.13;5034714;28;20025;-74
2022/01/02 01:09:58;;;;;;;4.47;2.53;;;;;;;9.33;100.00;100256.97;5034604;28;20029;-74
2022/01/02 01:12:23;;;;;;;5.43;2.28;;;;;;;9.42;100.00;100258.53;5033366;28;20116;-74
2022/01/02 01:14:51;;;;;;;8.13;2.75;;;;;;;9.43;100.00;100254.09;5034505;28;20162;-74
2022/01/02 01:17:16;;;;;;;4.47;2.22;;;;;;;9.50;100.00;100256.56;5034545;28;20029;-74
2022/01/02 01:19:42;;;;;;;5.78;2.70;;;;;;;9.57;100.00;100243.06;5034879;28;20139;-73
2022/01/02 01:22:08;;;;;;;4.22;2.25;;;;;;;9.64;100.00;100243.78;5034824;28;20025;-74
2022/01/02 01:24:35;;;;;;;4.85;2.05;;;;;;;9.74;100.00;100241.72;5034710;28;20478;-74
2022/01/02 01:27:04;;;;;;;7.50;2.40;;;;;;;9.73;100.00;100248.84;5033127;28;20021;-74
2022/01/02 01:29:34;;;;;;;4.65;2.38;;;;;;;9.78;100.00;100232.72;5032018;28;20034;-74
2022/01/02 01:32:00;;;;;;;5.53;2.50;;;;;;;9.82;100.00;100223.72;5034852;28;20028;-74
2022/01/02 01:34:25;;;;;;;6.80;3.35;;;;;;;9.94;100.00;100234.06;5034245;28;20064;-74
2022/01/02 01:36:50;;;;;;;6.18;2.67;;;;;;;10.00;100.00;100235.66;5034167;28;20053;-73
2022/01/02 01:39:16;;;;;;;4.15;2.15;;;;;;;9.91;100.00;100244.81;5034013;28;20390;-74
2022/01/02 01:41:41;;;;;;;5.20;2.38;;;;;;;9.93;100.00;100258.97;5034070;28;20021;-74
2022/01/02 01:44:27;;;;;;;5.28;2.65;;;;;;;9.97;100.00;100264.22;5033966;28;20022;-74
2022/01/02 01:46:55;;;;;;;4.85;2.30;;;;;;;9.97;100.00;100256.22;5033006;28;20044;-74
2022/01/02 01:49:26;;;;;;;5.88;2.75;;;;;;;10.13;100.00;100259.31;5032572;28;20504;-74
2022/01/02 01:51:53;;;;;;;3.88;2.50;;;;;;;10.10;100.00;100262.94;5033960;28;20029;-74
2022/01/02 01:54:18;;;;;;;4.70;2.58;;;;;;;10.05;100.00;100263.06;5033817;28;20057;-74
2022/01/02 01:56:45;;;;;;;6.53;2.50;;;;;;;10.03;100.00;100258.69;5033818;28;20064;-74
2022/01/02 01:59:11;;;;;;;6.18;2.47;;;;;;;10.12;100.00;100269.13;5033818;28;20458;-74
2022/01/02 02:01:36;;;;;;;4.20;2.50;;;;;;;10.21;100.00;100280.44;5033758;28;20062;-74
2022/01/02 02:04:01;;;;;;;4.80;2.80;;;;;;;10.08;100.00;100267.44;5033585;28;20442;-74
2022/01/02 02:06:27;;;;;;;6.38;2.60;;;;;;;10.12;100.00;100266.47;5033678;28;20028;-74
2022/01/02 02:08:59;;;;;;;4.80;2.90;;;;;;;10.22;99.72;100268.84;5033604;28;20027;-74
2022/01/02 02:11:24;;;;;;;4.25;2.53;;;;;;;10.17;99.95;100261.88;5033521;28;20451;-74
2022/01/02 02:13:50;;;;;;;5.32;2.80;;;;;;;10.09;100.00;100263.88;5033651;28;20529;-74
2022/01/02 02:16:16;;;;;;;5.38;2.70;;;;;;;10.24;99.20;100256.34;5033761;28;20025;-74
2022/01/02 02:18:41;;;;;;;4.10;2.38;;;;;;;10.15;99.75;100255.69;5032206;28;20113;-74
2022/01/02 02:21:06;;;;;;;4.70;2.70;;;;;;;10.15;100.00;100253.00;5033409;28;20394;-74
2022/01/02 02:23:32;;;;;;;5.75;2.45;;;;;;;10.12;99.82;100266.47;5033411;28;20100;-74
2022/01/02 02:25:57;;;;;;;5.00;2.58;;;;;;;10.26;98.82;100265.16;5033393;28;20025;-74
2022/01/02 02:28:26;;;;;;;7.35;2.85;;;;;;;10.25;98.92;100264.31;5048650;28;20120;-74
2022/01/02 02:30:52;;;;;;;6.07;2.65;;;;;;;10.20;99.28;100260.03;5033462;28;20108;-74
2022/01/02 02:33:19;;;;;;;5.72;2.65;;;;;;;10.23;98.94;100270.63;5033096;28;20033;-74
2022/01/02 02:35:46;;;;;;;5.25;2.47;;;;;;;10.27;98.37;100274.94;5033487;28;20029;-74
2022/01/02 02:38:13;;;;;;;7.75;2.80;;;;;;;10.38;97.51;100259.50;5033296;28;20108;-74
2022/01/02 02:40:41;;;;;;;5.10;2.80;;;;;;;10.28;99.10;100255.34;5033129;28;20056;-75
2022/01/02 02:51:12;;;;;;;6.88;2.80;;;;;;;10.08;100.00;100246.09;5033308;28;20458;-74
2022/01/02 02:53:41;;;;;;;6.13;2.85;;;;;;;10.08;100.00;100239.88;5032999;28;20108;-74
2022/01/02 02:56:24;;;;;;;6.15;3.40;;;;;;;10.00;100.00;100237.47;5031712;28;20021;-73
2022/01/02 02:58:55;;;;;;;6.50;2.80;;;;;;;10.03;100.00;100232.03;5033053;28;20048;-74
2022/01/02 03:01:22;;;;;;;6.25;2.85;;;;;;;10.00;100.00;100232.97;5032949;28;20501;-74
2022/01/02 03:03:48;;;;;;;5.47;2.55;;;;;;;9.95;100.00;100237.56;5031560;28;20032;-74
2022/01/02 03:06:15;;;;;;;6.28;2.83;;;;;;;9.97;100.00;100227.75;5033172;28;20033;-74
2022/01/02 03:08:42;;;;;;;6.32;3.00;;;;;;;10.06;100.00;100219.47;5031648;28;20506;-74
2022/01/02 03:11:13;;;;;;;5.43;2.92;;;;;;;9.92;100.00;100227.88;5032844;28;20030;-74
2022/01/02 03:13:38;;;;;;;5.43;3.05;;;;;;;9.93;100.00;100232.28;5031685;28;20021;-73
2022/01/02 03:16:04;;;;;;;5.32;2.80;;;;;;;9.86;100.00;100230.72;5032817;28;20029;-74
2022/01/02 03:18:29;;;;;;;6.90;3.38;;;;;;;9.84;100.00;100238.75;5032810;28;20116;-73
2022/01/02 03:20:54;;;;;;;6.03;3.35;;;;;;;9.84;100.00;100229.91;5032742;28;20034;-73
2022/01/02 03:23:20;;;;;;;5.90;2.78;;;;;;;9.79;100.00;100234.50;5033080;28;20497;-74
2022/01/02 03:25:45;;;;;;;5.47;3.30;;;;;;;9.65;100.00;100226.84;5032747;28;20071;-74
2022/01/02 03:28:11;;;;;;;8.27;3.38;;;;;;;9.62;100.00;100222.47;5032786;28;20497;-74
2022/01/02 03:30:36;;;;;;;8.48;3.97;;;;;;;9.53;100.00;100212.94;5032627;28;20030;-74
2022/01/02 03:33:02;;;;;;;8.50;3.38;;;;;;;9.53;100.00;100196.97;5047997;28;20493;-74
2022/01/02 03:35:27;;;;;;;6.75;3.28;;;;;;;9.47;100.00;100187.34;5032703;28;20021;-74
2022/01/02 03:37:53;;;;;;;5.82;3.38;;;;;;;9.49;100.00;100182.84;5032676;28;20029;-74
2022/01/02 03:40:19;;;;;;;6.88;3.85;;;;;;;9.45;100.00;100175.84;5032583;28;20052;-74
2022/01/02 03:42:44;;;;;;;6.70;3.47;;;;;;;9.48;100.00;100175.72;5032903;28;20030;-74
2022/01/02 03:45:10;;;;;;;6.13;3.40;;;;;;;9.42;100.00;100162.59;5032542;28;20025;-74
2022/01/02 03:47:36;;;;;;;7.82;3.42;;;;;;;9.35;100.00;100139.69;5032560;28;20482;-74
2022/01/02 03:50:03;;;;;;;7.57;3.90;;;;;;;9.46;100.00;100137.59;5031586;28;20379;-74
2022/01/02 03:52:29;;;;;;;8.57;3.42;;;;;;;9.47;100.00;100123.38;5034995;28;20028;-74
2022/01/02 03:54:54;;;;;;;7.18;3.88;;;;;;;9.47;100.00;100131.38;5036335;28;20108;-74
2022/01/02 03:57:20;;;;;;;5.20;3.20;;;;;;;9.45;100.00;100125.22;5036136;28;20027;-74
2022/01/02 03:59:45;;;;;;;6.07;3.45;;;;;;;9.46;100.00;100115.41;5036379;28;20029;-74
2022/01/02 04:02:11;;;;;;;6.00;3.15;;;;;;;9.50;100.00;100123.28;5035945;28;20036;-74
2022/01/02 04:04:37;;;;;;;11.73;3.85;;;;;;;9.48;100.00;100119.75;5035825;28;20474;-74
2022/01/02 04:07:03;;;;;;;8.07;3.25;;;;;;;9.54;100.00;100105.41;5051230;28;20478;-74
2022/01/02 04:09:28;;;;;;;7.63;3.35;;;;;;;9.55;100.00;100098.28;5035771;28;20091;-74
2022/01/02 04:11:54;;;;;;;6.93;3.85;;;;;;;9.55;100.00;100091.16;5035733;28;20048;-74
2022/01/02 04:14:19;;;;;;;7.28;3.75;;;;;;;9.66;100.00;100089.97;5035675;28;20022;-74
2022/01/02 04:16:44;;;;;;;7.10;3.63;;;;;;;9.60;100.00;100085.69;5035721;28;20116;-74
2022/01/02 04:19:10;;;;;;;7.68;3.80;;;;;;;9.52;100.00;100095.69;5035560;28;20470;-74
2022/01/02 04:21:35;;;;;;;10.38;3.78;;;;;;;9.47;100.00;100085.19;5035610;28;20030;-74
2022/01/02 04:24:00;;;;;;;9.70;3.60;;;;;;;9.45;100.00;100081.69;5034391;28;20040;-74
2022/01/02 04:26:26;;;;;;;7.15;3.72;;;;;;;9.42;100.00;100093.31;5034159;28;20121;-74
2022/01/02 04:28:51;;;;;;;8.60;3.95;;;;;;;9.38;100.00;100097.00;5035439;28;20034;-74
2022/01/02 04:31:16;;;;;;;13.40;3.92;;;;;;;9.36;100.00;100098.78;5035409;28;20021;-75
2022/01/02 04:33:41;;;;;;;8.95;3.40;;;;;;;9.33;100.00;100082.91;5035331;28;20403;-75
2022/01/02 04:36:07;;;;;;;7.65;3.55;;;;;;;9.40;100.00;100073.81;5035345;28;20029;-75
2022/01/02 04:38:34;;;;;;;9.77;3.92;;;;;;;9.46;100.00;100078.09;5035333;28;20018;-75
2022/01/02 04:41:00;;;;;;;9.18;3.60;;;;;;;9.38;100.00;100070.34;5035234;28;20021;-75
2022/01/02 04:43:25;;;;;;;8.88;3.85;;;;;;;9.37;100.00;100066.78;5035220;28;20452;-75
2022/01/02 04:45:50;;;;;;;7.75;3.97;;;;;;;9.31;100.00;100063.41;5035100;28;20527;-75
2022/01/02 04:48:16;;;;;;;12.10;3.95;;;;;;;9.29;100.00;100068.78;5035231;28;20026;-75
2022/01/02 04:50:41;;;;;;;12.35;4.05;;;;;;;9.28;100.00;100062.59;5034997;28;20022;-75
2022/01/02 04:53:06;;;;;;;9.07;4.03;;;;;;;9.29;100.00;100063.47;5034978;28;20438;-75
2022/01/02 04:55:32;;;;;;;11.77;4.45;;;;;;;9.30;100.00;100064.34;5035052;28;20078;-75
2022/01/02 04:57:57;;;;;;;9.18;4.05;;;;;;;9.31;100.00;100055.41;5033700;28;20601;-75
2022/01/02 05:00:22;;;;;;;8.98;4.07;;;;;;;9.27;100.00;100055.53;5034939;28;20022;-75
2022/01/02 05:02:49;;;;;;;10.25;3.85;;;;;;;9.34;100.00;100047.34;5034675;28;20025;-75
2022/01/02 05:05:16;;;;;;;9.68;3.85;;;;;;;9.38;100.00;100052.53;5034951;28;20108;-75
2022/01/02 05:07:41;;;;;;;11.52;4.35;;;;;;;9.39;100.00;100051.63;5035094;28;20378;-74
2022/01/02 05:10:07;;;;;;;12.70;4.80;;;;;;;9.40;100.00;100041.84;5034665;28;20017;-75
2022/01/02 05:12:32;;;;;;;7.22;4.03;;;;;;;9.46;100.00;100041.66;5034602;28;20022;-74
2022/01/02 05:14:57;;;;;;;11.82;4.22;;;;;;;9.46;100.00;100041.66;5034607;28;20036;-75
2022/01/02 05:17:23;;;;;;;9.77;4.22;;;;;;;9.46;100.00;100024.78;5034520;28;20556;-74
2022/01/02 05:19:48;;;;;;;9.32;4.15;;;;;;;9.52;100.00;100042.38;5034872;28;20031;-74
2022/01/02 05:22:14;;;;;;;13.93;4.22;;;;;;;9.52;100.00;100029.94;5034506;28;20057;-74
2022/01/02 05:24:39;;;;;;;7.45;3.85;;;;;;;9.55;100.00;100035.19;5034468;28;20037;-74
2022/01/02 05:27:05;;;;;;;10.18;3.97;;;;;;;9.49;100.00;100035.34;5034345;28;20025;-74
2022/01/02 05:29:30;;;;;;;13.07;4.22;;;;;;;9.46;100.00;100038.97;5034350;28;20437;-74
2022/01/02 05:31:55;;;;;;;9.48;3.85;;;;;;;9.45;100.00;100045.25;5033116;28;20025;-75
2022/01/02 05:34:20;;;;;;;8.73;4.53;;;;;;;9.48;100.00;100039.81;5034219;28;20025;-74
2022/01/02 05:36:48;;;;;;;10.93;4.45;;;;;;;9.44;100.00;100048.81;5034228;28;20036;-74
2022/01/02 05:39:23;;;;;;;8.48;4.47;;;;;;;9.36;100.00;100032.19;5034342;28;20029;-74
2022/01/02 05:41:51;;;;;;;7.78;4.15;;;;;;;9.35;100.00;100031.31;5034113;28;20445;-74
2022/01/02 05:44:17;;;;;;;14.35;4.43;;;;;;;9.36;100.00;100030.38;5034318;28;20024;-74
2022/01/02 05:46:43;;;;;;;10.80;4.07;;;;;;;9.38;100.00;100028.53;5032880;28;20029;-74
2022/01/02 05:49:10;;;;;;;11.32;4.20;;;;;;;9.41;100.00;100030.25;5033932;28;20021;-74
2022/01/02 05:51:36;;;;;;;10.00;4.43;;;;;;;9.49;100.00;100030.03;5033914;28;20029;-74
2022/01/02 05:54:02;;;;;;;10.65;4.07;;;;;;;9.56;100.00;100041.41;5034088;28;20030;-74
2022/01/02 05:56:27;;;;;;;10.40;4.07;;;;;;;9.59;100.00;100035.94;5033818;28;20104;-74
2022/01/02 05:58:53;;;;;;;10.63;3.97;;;;;;;9.58;100.00;100029.78;5033793;28;20056;-74
2022/01/02 06:01:18;;;;;;;10.52;3.83;;;;;;;9.64;100.00;100026.03;5032330;28;20025;-74
2022/01/02 06:03:43;;;;;;;10.70;4.25;;;;;;;9.67;100.00;100023.28;5033561;28;20025;-74
2022/01/02 06:06:09;;;;;;;11.40;4.28;;;;;;;9.67;100.00;100006.41;5033914;28;20033;-74
2022/01/02 06:08:34;;;;;;;14.55;4.38;;;;;;;9.79;100.00;99995.34;5033621;28;20033;-75
2022/01/02 06:10:59;;;;;;;10.32;3.47;;;;;;;9.80;100.00;99996.22;5034234;28;20029;-76
2022/01/02 06:13:25;;;;;;;9.73;3.80;;;;;;;9.81;100.00;99995.31;5048873;28;20393;-75
2022/01/02 06:15:51;;;;;;;10.05;3.63;;;;;;;9.90;100.00;99991.47;5032935;28;20397;-74
2022/01/02 06:18:16;;;;;;;8.70;3.22;;;;;;;9.90;100.00;99983.47;5032375;28;20036;-74
2022/01/02 06:20:41;;;;;;;9.50;3.42;;;;;;;10.00;100.00;99984.06;5033792;28;20025;-75
2022/01/02 06:23:07;;;;;;;8.60;3.88;;;;;;;10.01;100.00;99978.66;5032114;28;20108;-75
2022/01/02 06:25:33;;;;;;;10.23;3.58;;;;;;;10.02;100.00;99979.53;5033465;28;20025;-75
2022/01/02 06:27:59;;;;;;;8.98;3.63;;;;;;;10.07;100.00;99982.94;5033618;28;20037;-75
2022/01/02 06:30:25;;;;;;;9.32;4.05;;;;;;;10.12;100.00;99986.31;5033257;28;20195;-75
2022/01/02 06:32:54;;;;;;;9.32;3.45;;;;;;;10.13;100.00;99988.06;5033215;28;20036;-74
2022/01/02 06:35:25;;;;;;;10.65;3.17;;;;;;;10.12;100.00;99982.78;5033544;28;20104;-75
2022/01/02 06:37:50;;;;;;;12.20;3.35;;;;;;;10.20;100.00;99982.53;5033286;28;20390;-74
2022/01/02 06:40:16;;;;;;;13.57;4.05;;;;;;;10.15;100.00;99986.19;5033112;28;20534;-74
2022/01/02 06:42:41;;;;;;;11.32;3.75;;;;;;;10.27;100.00;99984.94;5033269;28;20025;-74
2022/01/02 06:45:07;;;;;;;9.93;3.67;;;;;;;10.27;100.00;99994.72;5033132;28;20030;-73
2022/01/02 06:47:32;;;;;;;10.20;3.50;;;;;;;10.48;100.00;99987.81;5031783;28;20025;-73
2022/01/02 06:49:57;;;;;;;11.30;3.45;;;;;;;10.44;100.00;99985.25;5033285;28;20485;-73
2022/01/02 06:52:23;;;;;;;11.68;3.85;;;;;;;10.46;100.00;99973.59;5033340;28;20040;-74
2022/01/02 06:54:52;;;;;;;9.00;3.45;;;;;;;10.44;100.00;99974.59;5033252;28;20036;-74
2022/01/02 06:57:18;;;;;;;8.20;3.28;;;;;;;10.47;100.00;99963.81;5033050;28;20029;-73
2022/01/02 06:59:43;;;;;;;8.55;3.50;;;;;;;10.48;100.00;99974.44;5032975;28;20544;-73
2022/01/02 07:02:09;;;;;;;10.80;4.10;;;;;;;10.49;100.00;99960.16;5033005;28;20444;-73
2022/01/02 07:04:34;;;;;;;11.93;3.50;;;;;;;10.48;100.00;99960.22;5118714;22;20053;-82
2022/01/02 07:06:59;;;;;;;8.50;3.53;;;;;;;10.45;100.00;99949.66;5059493;28;20445;-82
2022/01/02 07:09:24;;;;;;;8.05;3.33;;;;;;;10.38;100.00;99949.00;5060870;28;20584;-81
2022/01/02 07:11:50;;;;;;;11.02;3.70;;;;;;;10.39;100.00;99942.72;5061477;28;20120;-81
2022/01/02 07:14:15;;;;;;;12.10;3.53;;;;;;;10.33;100.00;99930.50;5061148;28;20029;-82
2022/01/02 07:16:40;;;;;;;9.25;3.50;;;;;;;10.30;100.00;99935.94;5061083;28;20493;-82
2022/01/02 07:19:05;;;;;;;13.65;3.67;;;;;;;10.34;100.00;99924.22;5061358;28;20167;-82
2022/01/02 07:21:31;;;;;;;12.27;3.70;;;;;;;10.37;100.00;99917.88;5061456;28;20040;-82
2022/01/02 07:23:58;;;;;;;8.10;3.30;;;;;;;10.34;100.00;99920.66;5062318;28;20072;-82
2022/01/02 07:26:23;;;;;;;8.40;3.47;;;;;;;10.37;100.00;99916.09;5063405;28;20037;-82
2022/01/02 07:28:49;;;;;;;13.52;3.85;;;;;;;10.30;100.00;99909.25;5061068;28;20370;-79
2022/01/02 07:31:14;;;;;;;10.02;3.55;;;;;;;10.27;100.00;99909.34;5056251;28;20112;-82
2022/01/02 07:33:39;;;;;;;9.48;3.55;;;;;;;10.23;100.00;99907.72;5058680;28;20021;-81
2022/01/02 07:36:04;;;;;;;8.30;3.72;;;;;;;10.23;100.00;99903.22;5060432;28;20025;-82
2022/01/02 07:38:30;;;;;;;13.50;3.47;;;;;;;10.35;100.00;99885.94;5066443;28;20407;-82
2022/01/02 07:40:55;;;;;;;11.45;4.35;;;;;;;10.41;100.00;99894.66;5066988;28;20021;-82
2022/01/02 07:43:20;;;;;;;10.07;3.70;;;;;;;10.36;100.00;99887.66;5066789;28;20094;-83
2022/01/02 07:45:45;;;;;;;9.85;3.67;;;;;;;10.33;100.00;99885.13;5067640;28;20036;-82
2022/01/02 07:48:11;;;;;;;7.60;3.45;;;;;;;10.44;100.00;99879.38;5065441;28;20145;-81
2022/01/02 07:50:36;;;;;;;9.15;3.08;;;;;;;10.35;100.00;99867.25;5068209;28;20029;-82
2022/01/02 07:53:01;;;;;;;10.27;3.92;;;;;;;10.34;100.00;99862.81;5066532;28;20024;-82
2022/01/02 07:55:27;;;;;;;10.93;3.70;;;;;;;10.32;100.00;99853.13;5065238;28;20028;-82
2022/01/02 07:57:52;;;;;;;10.23;3.90;;;;;;;10.30;100.00;99850.53;5064869;28;20425;-82
2022/01/02 08:00:18;;;;;;;8.68;3.72;;;;;;;10.28;100.00;99849.72;5065143;28;20025;-82
2022/01/02 08:02:43;;;;;;;8.57;3.50;;;;;;;10.33;100.00;99845.09;5066001;28;20113;-82
2022/01/02 08:05:12;;;;;;;7.93;3.38;;;;;;;10.34;100.00;99814.78;5065811;28;20028;-82
2022/01/02 08:07:43;;;;;;;10.18;3.80;;;;;;;10.35;100.00;99795.19;5056610;28;20588;-81
2022/01/02 08:10:08;;;;;;;13.20;4.60;;;;;;;10.25;100.00;99759.09;5057690;28;20115;-83
2022/01/02 08:12:34;;;;;;;9.80;3.67;;;;;;;10.22;100.00;99769.88;5058606;28;20056;-83
2022/01/02 08:14:59;;;;;;;8.65;4.18;;;;;;;10.19;100.00;99770.88;5061057;28;20101;-82
2022/01/02 08:17:27;;;;;;;12.02;4.60;;;;;;;10.20;100.00;99787.75;5062261;28;20025;-82
2022/01/02 08:19:52;;;;;;;11.80;4.40;;;;;;;10.15;100.00;99795.94;5062506;28;20032;-82
2022/01/02 08:22:17;;;;;;;8.80;3.97;;;;;;;10.08;100.00;99811.25;5062980;28;20032;-82
2022/01/02 08:24:42;;;;;;;13.20;4.25;;;;;;;10.07;100.00;99806.88;5066703;28;20109;-82
2022/01/02 08:27:08;;;;;;;11.85;4.32;;;;;;;10.06;100.00;99794.44;5064206;28;20481;-82
2022/01/02 08:29:36;;;;;;;15.70;4.50;;;;;;;10.09;100.00;99799.69;5064692;28;20084;-83
2022/01/02 08:32:09;;;;;;;11.95;4.30;;;;;;;10.05;100.00;99777.56;5067063;28;20078;-81
2022/01/02 08:34:42;;;;;;;12.52;4.25;;;;;;;10.02;100.00;99764.38;5064848;28;20029;-82
2022/01/02 08:37:11;;;;;;;11.77;4.03;;;;;;;9.99;100.00;99756.47;5064881;28;20079;-82
2022/01/02 08:39:37;;;;;;;9.43;3.97;;;;;;;9.99;100.00;99766.25;5065698;28;20104;-82
2022/01/02 08:42:14;;;;;;;9.38;3.90;;;;;;;10.02;100.00;99752.81;5064612;28;20055;-83
2022/01/02 08:45:06;;;;;;;10.93;4.47;;;;;;;10.06;100.00;99738.44;5057142;28;20028;-82
2022/01/02 08:47:32;;;;;;;9.77;3.92;;;;;;;10.05;100.00;99734.88;5042432;28;20155;-81
2022/01/02 08:49:57;;;;;;;11.88;4.18;;;;;;;10.05;100.00;99726.03;5060013;28;20021;-81
2022/01/02 08:52:23;;;;;;;11.23;4.15;;;;;;;10.08;100.00;99720.56;5062658;28;20021;-82
2022/01/02 08:54:48;;;;;;;8.50;4.00;;;;;;;10.11;100.00;99733.78;5060343;28;20504;-82
2022/01/02 08:57:14;;;;;;;10.85;3.90;;;;;;;10.12;100.00;99724.88;5063627;28;20385;-82
2022/01/02 08:59:39;;;;;;;12.25;4.03;;;;;;;10.17;100.00;99714.03;5063997;28;20025;-82
2022/01/02 09:02:05;;;;;;;11.25;3.75;;;;;;;10.19;100.00;99697.94;5062849;28;20111;-82
2022/01/02 09:04:49;;;;;;;12.75;4.18;;;;;;;10.23;100.00;99679.09;5068182;28;20025;-83
2022/01/02 09:07:14;;;;;;;10.35;3.55;;;;;;;10.30;100.00;99662.84;5068103;28;20092;-82
2022/01/02 09:09:40;;;;;;;12.52;3.72;;;;;;;10.38;100.00;99666.97;5067021;28;20021;-82
2022/01/02 09:12:06;;;;;;;14.05;4.47;;;;;;;10.38;100.00;99655.44;5066469;28;20017;-84
2022/01/02 09:14:32;;;;;;;10.07;3.35;;;;;;;10.52;100.00;99646.00;5068616;28;20024;-83
2022/01/02 09:16:57;;;;;;;8.85;3.05;;;;;;;10.61;100.00;99625.19;5066423;28;20066;-83
2022/01/02 09:19:22;;;;;;;7.80;3.40;;;;;;;10.68;100.00;99628.44;5067671;28;20033;-83
2022/01/02 09:21:56;;;;;;;13.45;2.88;;;;;;;10.74;100.00;99616.66;5061546;28;20032;-83
2022/01/02 09:24:22;;;;;;;10.88;3.22;;;;;;;10.83;100.00;99589.56;5059071;28;20448;-81
2022/01/02 09:26:47;;;;;;;13.00;3.30;;;;;;;10.93;100.00;99610.53;5061261;28;20508;-81
2022/01/02 09:29:12;;;;;;;9.98;3.08;;;;;;;10.95;100.00;99595.31;5063000;28;20082;-80
2022/01/02 09:31:37;;;;;;;13.00;3.42;;;;;;;11.03;100.00;99617.22;5063632;28;20025;-81
2022/01/02 09:34:03;;;;;;;13.57;3.30;;;;;;;11.01;100.00;99632.44;5065750;28;20053;-82
2022/01/02 09:36:28;;;;;;;9.65;3.33;;;;;;;11.05;100.00;99601.13;5065585;28;20410;-81
2022/01/02 09:38:57;;;;;;;9.60;3.55;;;;;;;10.99;100.00;99567.53;5064220;28;20094;-82
2022/01/02 09:41:23;;;;;;;6.30;2.78;;;;;;;10.93;100.00;99575.78;5065022;28;20028;-82
2022/01/02 09:43:48;;;;;;;10.13;2.90;;;;;;;10.92;100.00;99588.31;5063446;28;20021;-82
2022/01/02 09:46:30;;;;;;;9.93;2.90;;;;;;;10.96;100.00;99589.03;5065722;28;20053;-82
2022/01/02 09:49:07;;;;;;;12.65;3.42;;;;;;;11.11;100.00;99575.94;5063312;28;20100;-82
2022/01/02 09:51:38;;;;;;;10.63;3.15;;;;;;;11.19;100.00;99557.75;5066186;28;20092;-84
2022/01/02 09:54:06;;;;;;;9.30;2.53;;;;;;;11.27;100.00;99552.94;5067783;28;20127;-82
2022/01/02 09:56:31;;;;;;;11.30;2.97;;;;;;;11.25;100.00;99551.28;5069985;28;20028;-83
2022/01/02 09:58:57;;;;;;;13.15;2.88;;;;;;;11.22;100.00;99554.09;5067658;28;20375;-82
2022/01/02 10:01:25;;;;;;;8.25;2.97;;;;;;;11.18;100.00;99542.69;5054560;28;20178;-81
2022/01/02 10:03:59;;;;;;;6.15;2.75;;;;;;;11.19;100.00;99555.09;5055785;28;20132;-82
2022/01/02 10:06:48;;;;;;;8.18;2.70;;;;;;;11.23;100.00;99555.84;5058176;28;20033;-80
2022/01/02 10:09:36;;;;;;;9.70;2.40;;;;;;;11.25;100.00;99553.97;5058990;28;20028;-84
2022/01/02 10:12:28;;;;;;;11.23;2.97;;;;;;;11.43;100.00;99572.78;5058437;28;20021;-83
2022/01/02 10:15:16;;;;;;;11.02;4.00;;;;;;;11.47;100.00;99553.84;5057972;28;20134;-83
2022/01/02 10:18:01;;;;;;;13.50;4.72;;;;;;;11.62;99.47;99556.78;5060039;28;20024;-82
2022/01/02 10:20:44;;;;;;;7.20;2.50;;;;;;;11.79;97.62;99558.66;5065439;28;20043;-83
2022/01/02 10:23:20;;;;;;;4.47;2.43;;;;;;;11.83;96.55;99559.34;5066973;28;20122;-83
2022/01/02 10:26:30;;;;;;;9.68;2.35;;;;;;;12.00;93.47;99566.59;5066173;28;20167;-84
2022/01/02 10:28:55;;;;;;;6.07;2.33;;;;;;;12.01;93.14;99562.13;5063242;28;20021;-83
2022/01/02 10:31:49;;;;;;;6.65;2.22;;;;;;;12.07;92.25;99551.09;5061791;28;20035;-85
2022/01/02 10:34:30;;;;;;;5.68;2.30;;;;;;;12.13;91.61;99556.22;5060500;28;20032;-85
2022/01/02 10:36:55;;;;;;;9.02;2.38;;;;;;;12.19;90.20;99549.66;5061969;28;20029;-84
2022/01/02 10:39:20;;;;;;;4.15;1.98;;;;;;;12.25;89.39;99553.84;5055466;28;20082;-83
2022/01/02 10:41:51;;;;;;;7.70;2.38;;;;;;;12.28;89.40;99551.03;5054278;28;20029;-83
2022/01/02 10:44:37;;;;;;;5.88;1.80;;;;;;;12.31;89.51;99540.19;5055647;28;20040;-83
2022/01/02 10:47:15;;;;;;;5.78;2.05;;;;;;;12.24;90.12;99552.97;5057134;28;20137;-82
2022/01/02 10:49:59;;;;;;;7.57;2.30;;;;;;;12.24;90.05;99538.75;5057896;28;20017;-82
2022/01/02 10:52:34;;;;;;;7.85;2.17;;;;;;;12.17;92.39;99540.84;5059931;28;20112;-80
2022/01/02 10:55:05;;;;;;;8.85;2.42;;;;;;;12.17;91.60;99536.38;5061370;28;20021;-83
2022/01/02 10:57:34;;;;;;;14.52;2.90;;;;;;;12.03;93.50;99533.47;5057247;28;20029;-82
2022/01/02 11:00:00;;;;;;;6.55;2.63;;;;;;;11.98;94.07;99562.25;5059002;28;20036;-82
2022/01/02 11:02:27;;;;;;;7.20;2.47;;;;;;;11.89;95.33;99552.84;5062583;28;20029;-83
2022/01/02 11:04:58;;;;;;;8.73;2.30;;;;;;;11.77;97.60;99557.84;5062506;28;20032;-83
2022/01/02 11:07:24;;;;;;;7.65;2.45;;;;;;;11.86;94.69;99553.88;5063405;28;20047;-83
2022/01/02 11:09:55;;;;;;;5.10;2.15;;;;;;;11.77;95.83;99538.25;5061695;28;20021;-82
2022/01/02 11:12:21;;;;;;;8.02;2.58;;;;;;;11.59;99.44;99524.81;5061998;28;20017;-82
2022/01/02 11:14:48;;;;;;;7.47;2.67;;;;;;;11.35;100.00;99514.31;5061832;28;20029;-82
2022/01/02 11:17:14;;;;;;;6.40;2.50;;;;;;;11.15;100.00;99521.44;5059871;28;20108;-81
2022/01/02 11:19:40;;;;;;;6.30;2.67;;;;;;;11.05;100.00;99512.97;5059702;28;20136;-84
2022/01/02 11:22:13;;;;;;;8.38;2.50;;;;;;;11.04;100.00;99519.25;5061160;28;20052;-83
2022/01/02 11:24:54;;;;;;;6.75;2.45;;;;;;;11.01;100.00;99525.59;5061618;28;20062;-81
2022/01/02 11:27:49;;;;;;;7.97;2.50;;;;;;;10.97;100.00;99524.00;5065000;28;20032;-82
2022/01/02 11:30:30;;;;;;;7.45;2.60;;;;;;;10.93;100.00;99519.69;5063027;28;20032;-82
2022/01/02 11:33:16;;;;;;;6.00;2.28;;;;;;;11.02;100.00;99513.97;5066062;28;20033;-82
2022/01/02 11:35:49;;;;;;;6.07;2.47;;;;;;;11.11;99.27;99517.16;5063845;28;20035;-82
2022/01/02 11:38:17;;;;;;;6.15;2.33;;;;;;;11.21;96.88;99531.84;5068561;28;20029;-82
2022/01/02 11:40:57;;;;;;;7.22;3.00;;;;;;;11.18;97.45;99526.66;5067499;28;20032;-81
2022/01/02 11:43:49;;;;;;;5.85;2.47;;;;;;;11.46;96.62;99524.50;5063683;28;20013;-81